Time;durP1;ratioP1;P1;durP2;ratioP2;P2;SDS_P1;SDS_P2;PMS_P1;PMS_P2;Temp;Humidity;BMP_temperature;BMP_pressure;BME280_temperature;BME280_humidity;BME280_pressure;Samples;Min_cycle;Max_cycle;Signal;HPM_P1;HPM_P2
2022/09/26 00:04:14;;;;;;;3.50;3.20;;;;;;;;;;10282750;28;20075;-68
2022/09/26 00:09:13;;;;;;;3.13;2.83;;;;;;;;;;10298069;28;20446;-68
2022/09/26 00:14:13;;;;;;;4.25;3.22;;;;;;;;;;10283013;28;20107;-67
2022/09/26 00:19:12;;;;;;;4.07;3.08;;;;;;;;;;10283790;28;20076;-68
2022/09/26 00:24:11;;;;;;;3.42;3.15;;;;;;;;;;10287742;28;20060;-66
2022/09/26 00:29:10;;;;;;;3.67;3.30;;;;;;;;;;10287611;28;20521;-67
2022/09/26 00:34:12;;;;;;;7.80;3.00;;;;;;;;;;10284595;28;20533;-67
2022/09/26 00:39:11;;;;;;;4.45;3.58;;;;;;;;;;10273448;28;20052;-67
2022/09/26 00:44:28;;;;;;;3.58;3.28;;;;;;;;;;10283213;28;20291;-67
2022/09/26 00:49:30;;;;;;;5.55;3.30;;;;;;;;;;10308718;28;20072;-67
2022/09/26 00:54:29;;;;;;;4.22;3.30;;;;;;;;;;10289878;28;20595;-67
2022/09/26 00:59:29;;;;;;;7.90;3.22;;;;;;;;;;10284558;28;20506;-68
2022/09/26 01:04:36;;;;;;;3.53;3.15;;;;;;;;;;10288615;28;20071;-68
2022/09/26 01:09:34;;;;;;;5.47;2.88;;;;;;;;;;10292950;28;20083;-67
2022/09/26 01:14:33;;;;;;;3.38;2.67;;;;;;;;;;10280336;28;20087;-67
2022/09/26 01:19:36;;;;;;;3.50;2.65;;;;;;;;;;10286880;28;20111;-67
2022/09/26 01:24:55;;;;;;;3.45;2.97;;;;;;;;;;10288185;28;20084;-67
2022/09/26 01:30:04;;;;;;;3.40;2.92;;;;;;;;;;10275092;28;20044;-67
2022/09/26 01:35:11;;;;;;;5.90;3.57;;;;;;;;;;10288549;28;20433;-67
2022/09/26 01:40:14;;;;;;;3.45;3.15;;;;;;;;;;10285283;28;20053;-67
2022/09/26 01:45:17;;;;;;;3.60;2.97;;;;;;;;;;10289411;28;20548;-67
2022/09/26 01:50:21;;;;;;;6.30;3.45;;;;;;;;;;10286519;28;20048;-67
2022/09/26 01:55:23;;;;;;;3.70;3.40;;;;;;;;;;10288588;28;20079;-67
2022/09/26 02:00:25;;;;;;;3.87;3.57;;;;;;;;;;10297833;28;20048;-67
2022/09/26 02:05:31;;;;;;;3.40;3.10;;;;;;;;;;10290975;28;20057;-67
2022/09/26 02:10:32;;;;;;;4.38;3.78;;;;;;;;;;10291936;28;20103;-67
2022/09/26 02:15:34;;;;;;;4.38;3.28;;;;;;;;;;10297303;28;20075;-67
2022/09/26 02:20:36;;;;;;;5.05;2.88;;;;;;;;;;10293651;28;20044;-67
2022/09/26 02:25:36;;;;;;;8.80;3.15;;;;;;;;;;10288342;28;20087;-68
2022/09/26 02:30:36;;;;;;;3.45;3.15;;;;;;;;;;10287626;28;20047;-68
2022/09/26 02:40:52;;;;;;;3.85;3.17;;;;;;;;;;10291918;28;20533;-68
2022/09/26 02:45:57;;;;;;;6.07;3.70;;;;;;;;;;10279183;28;20080;-68
2022/09/26 02:51:08;;;;;;;3.33;3.03;;;;;;;;;;10291353;28;20052;-67
2022/09/26 02:56:13;;;;;;;4.35;3.55;;;;;;;;;;10283752;28;20080;-67
2022/09/26 03:01:16;;;;;;;5.43;3.20;;;;;;;;;;10282609;28;20056;-67
2022/09/26 03:06:16;;;;;;;;;;;;;;;;;;10283499;28;20076;-68
2022/09/26 03:11:18;;;;;;;3.63;3.10;;;;;;;;;;10282808;28;19920;-67
2022/09/26 03:16:19;;;;;;;3.58;3.28;;;;;;;;;;10280386;28;20080;-68
2022/09/26 03:21:18;;;;;;;3.70;3.40;;;;;;;;;;10282528;28;20079;-67
2022/09/26 03:26:18;;;;;;;4.68;3.80;;;;;;;;;;10290223;28;20080;-68
2022/09/26 03:31:25;;;;;;;5.72;3.40;;;;;;;;;;10283096;28;20084;-67
2022/09/26 03:36:44;;;;;;;4.30;3.55;;;;;;;;;;10282899;28;20077;-67
2022/09/26 03:41:44;;;;;;;3.88;3.45;;;;;;;;;;10282277;28;20076;-67
2022/09/26 03:46:56;;;;;;;4.35;3.53;;;;;;;;;;10283619;28;20049;-68
2022/09/26 03:51:54;;;;;;;4.18;3.78;;;;;;;;;;10284461;28;20045;-68
2022/09/26 03:56:56;;;;;;;6.47;3.92;;;;;;;;;;10283496;28;20076;-67
2022/09/26 04:01:55;;;;;;;8.43;4.07;;;;;;;;;;10289835;28;20088;-67
2022/09/26 04:06:55;;;;;;;3.22;2.92;;;;;;;;;;10294786;28;20073;-66
2022/09/26 04:11:55;;;;;;;6.00;3.95;;;;;;;;;;10293241;28;20041;-66
2022/09/26 04:16:57;;;;;;;12.55;4.18;;;;;;;;;;10279950;28;20099;-67
2022/09/26 04:22:07;;;;;;;5.47;3.67;;;;;;;;;;10278057;28;20083;-66
2022/09/26 04:27:07;;;;;;;3.67;3.38;;;;;;;;;;10289234;28;20068;-67
2022/09/26 04:32:07;;;;;;;3.97;3.53;;;;;;;;;;10284339;28;20072;-67
2022/09/26 04:37:19;;;;;;;6.25;3.17;;;;;;;;;;10281018;28;20120;-68
2022/09/26 04:42:17;;;;;;;4.03;3.35;;;;;;;;;;10280345;28;20143;-66
2022/09/26 04:47:17;;;;;;;5.10;3.20;;;;;;;;;;10275925;28;20072;-67
2022/09/26 04:52:38;;;;;;;5.10;4.55;;;;;;;;;;10291340;28;20083;-66
2022/09/26 04:57:37;;;;;;;4.05;3.65;;;;;;;;;;10298942;28;20076;-67
2022/09/26 05:02:36;;;;;;;10.50;4.25;;;;;;;;;;10290775;28;20072;-67
2022/09/26 05:07:39;;;;;;;5.32;3.78;;;;;;;;;;10298345;28;20080;-67
2022/09/26 05:12:39;;;;;;;7.18;4.50;;;;;;;;;;10310451;28;20080;-67
2022/09/26 05:17:38;;;;;;;5.82;4.55;;;;;;;;;;10304782;28;20534;-67
2022/09/26 05:22:39;;;;;;;7.68;4.53;;;;;;;;;;10301829;28;20083;-68
2022/09/26 05:27:37;;;;;;;5.18;4.03;;;;;;;;;;10302331;28;20506;-67
2022/09/26 05:32:36;;;;;;;10.88;4.47;;;;;;;;;;10298253;28;20064;-66
2022/09/26 05:37:36;;;;;;;5.68;4.07;;;;;;;;;;10295475;28;20086;-67
2022/09/26 05:42:35;;;;;;;10.15;4.05;;;;;;;;;;10294371;28;20080;-67
2022/09/26 05:47:35;;;;;;;7.35;3.40;;;;;;;;;;10293734;28;20068;-67
2022/09/26 05:52:36;;;;;;;4.90;3.30;;;;;;;;;;10288573;28;21445;-67
2022/09/26 05:57:35;;;;;;;5.28;3.58;;;;;;;;;;10289080;28;20092;-68
2022/09/26 06:02:33;;;;;;;4.15;3.10;;;;;;;;;;10299670;28;20056;-67
2022/09/26 06:07:58;;;;;;;3.95;3.05;;;;;;;;;;10297410;28;20094;-68
2022/09/26 06:13:14;;;;;;;3.42;3.13;;;;;;;;;;10299399;28;20083;-66
2022/09/26 06:18:18;;;;;;;5.30;3.28;;;;;;;;;;10306794;28;20181;-67
2022/09/26 06:23:18;;;;;;;6.13;3.78;;;;;;;;;;10291888;28;20541;-68
2022/09/26 06:28:17;;;;;;;5.80;3.47;;;;;;;;;;10291890;28;20069;-68
2022/09/26 06:33:16;;;;;;;4.07;3.00;;;;;;;;;;10299973;28;20103;-67
2022/09/26 06:38:44;;;;;;;7.95;3.45;;;;;;;;;;10290352;28;20491;-68
2022/09/26 06:43:47;;;;;;;3.33;2.92;;;;;;;;;;10287380;28;20083;-68
2022/09/26 06:48:46;;;;;;;4.47;3.67;;;;;;;;;;10283378;28;20483;-68
2022/09/26 06:54:11;;;;;;;10.95;4.88;;;;;;;;;;10280228;28;20557;-67
2022/09/26 06:59:10;;;;;;;111.03;91.60;;;;;;;;;;10283706;28;20099;-67
2022/09/26 07:04:17;;;;;;;6.47;3.97;;;;;;;;;;10284767;28;20087;-68
2022/09/26 07:09:39;;;;;;;14.90;4.80;;;;;;;;;;10283854;28;20083;-67
2022/09/26 07:15:08;;;;;;;11.60;4.75;;;;;;;;;;10280977;28;20163;-67
2022/09/26 07:20:07;;;;;;;5.78;4.07;;;;;;;;;;10282853;28;20076;-67
2022/09/26 07:25:25;;;;;;;7.78;4.53;;;;;;;;;;10285008;28;20079;-68
2022/09/26 07:30:25;;;;;;;6.63;4.15;;;;;;;;;;10287171;28;20052;-67
2022/09/26 07:35:31;;;;;;;7.65;3.97;;;;;;;;;;10282682;28;20071;-66
2022/09/26 07:40:30;;;;;;;8.52;4.68;;;;;;;;;;10284051;28;20087;-68
2022/09/26 07:50:45;;;;;;;9.52;5.85;;;;;;;;;;10293075;28;20045;-67
2022/09/26 07:56:09;;;;;;;8.38;4.20;;;;;;;;;;10287237;28;20077;-67
2022/09/26 08:01:29;;;;;;;4.68;4.15;;;;;;;;;;10289873;28;20086;-66
2022/09/26 08:07:00;;;;;;;5.93;3.65;;;;;;;;;;10281834;28;20087;-67
2022/09/26 08:12:00;;;;;;;6.90;3.70;;;;;;;;;;10288426;28;20048;-67
2022/09/26 08:17:15;;;;;;;5.40;3.65;;;;;;;;;;10289181;28;20538;-69
2022/09/26 08:22:13;;;;;;;9.25;3.47;;;;;;;;;;10274810;28;20049;-69
2022/09/26 08:27:13;;;;;;;5.28;3.70;;;;;;;;;;10287562;28;20075;-68
2022/09/26 08:32:13;;;;;;;4.57;3.00;;;;;;;;;;10291527;28;20503;-68
2022/09/26 08:37:11;;;;;;;13.43;4.63;;;;;;;;;;10282623;28;20076;-68
2022/09/26 08:42:35;;;;;;;7.18;3.75;;;;;;;;;;10282869;28;20491;-68
2022/09/26 08:47:52;;;;;;;6.57;3.35;;;;;;;;;;10282749;28;20052;-68
2022/09/26 08:53:02;;;;;;;5.78;3.40;;;;;;;;;;10280383;28;20049;-66
2022/09/26 08:58:08;;;;;;;11.07;4.57;;;;;;;;;;10280184;28;20433;-67
2022/09/26 09:03:11;;;;;;;8.73;3.25;;;;;;;;;;10297354;28;20409;-68
2022/09/26 09:08:14;;;;;;;7.57;3.80;;;;;;;;;;10287194;28;20045;-68
2022/09/26 09:13:40;;;;;;;8.82;3.38;;;;;;;;;;10282526;28;20057;-69
2022/09/26 09:19:13;;;;;;;8.90;3.45;;;;;;;;;;10289088;28;20112;-67
2022/09/26 09:24:39;;;;;;;8.63;3.45;;;;;;;;;;10285721;28;20084;-67
2022/09/26 09:29:51;;;;;;;4.28;2.90;;;;;;;;;;10272630;28;20056;-68
2022/09/26 09:35:18;;;;;;;3.60;2.92;;;;;;;;;;10278147;28;20055;-67
2022/09/26 09:40:42;;;;;;;6.90;3.90;;;;;;;;;;10297924;28;20080;-68
2022/09/26 09:45:45;;;;;;;7.13;3.40;;;;;;;;;;10296408;28;20048;-67
2022/09/26 09:50:49;;;;;;;9.80;3.78;;;;;;;;;;10291181;28;20430;-67
2022/09/26 09:55:54;;;;;;;4.25;3.30;;;;;;;;;;10290206;28;20032;-68
2022/09/26 10:00:52;;;;;;;;;;;;;;;;;;10286608;28;20080;-68
2022/09/26 10:06:00;;;;;;;4.03;2.92;;;;;;;;;;10288414;28;19925;-67
2022/09/26 10:11:11;;;;;;;5.88;3.97;;;;;;;;;;10302957;28;20059;-68
2022/09/26 10:16:28;;;;;;;4.13;3.45;;;;;;;;;;10290437;28;20186;-68
2022/09/26 10:21:33;;;;;;;5.90;3.50;;;;;;;;;;10297845;28;20057;-68
2022/09/26 10:26:34;;;;;;;6.40;3.50;;;;;;;;;;10289011;28;20084;-68
2022/09/26 10:31:36;;;;;;;6.50;3.43;;;;;;;;;;10287642;28;20505;-67
2022/09/26 10:36:48;;;;;;;5.80;3.47;;;;;;;;;;10291051;28;20474;-67
2022/09/26 10:41:48;;;;;;;3.58;2.97;;;;;;;;;;10284241;28;20505;-68
2022/09/26 10:46:48;;;;;;;9.50;2.90;;;;;;;;;;10286278;28;20069;-68
2022/09/26 10:52:03;;;;;;;6.50;4.07;;;;;;;;;;10296602;28;20080;-70
2022/09/26 10:57:08;;;;;;;3.65;2.85;;;;;;;;;;10298758;28;20063;-69
2022/09/26 11:02:16;;;;;;;6.70;2.63;;;;;;;;;;10298221;28;20053;-68
2022/09/26 11:07:23;;;;;;;2.38;2.17;;;;;;;;;;10293591;28;20048;-68
2022/09/26 11:12:41;;;;;;;3.60;2.58;;;;;;;;;;10300642;28;20422;-68
2022/09/26 11:17:43;;;;;;;4.82;2.17;;;;;;;;;;10291759;28;20088;-68
2022/09/26 11:22:48;;;;;;;5.28;3.03;;;;;;;;;;10289712;28;20060;-68
2022/09/26 11:27:48;;;;;;;6.32;2.95;;;;;;;;;;10284581;28;20586;-67
2022/09/26 11:32:55;;;;;;;8.40;3.15;;;;;;;;;;10286803;28;20068;-67
2022/09/26 11:38:38;;;;;;;5.22;2.88;;;;;;;;;;10273549;28;20080;-67
2022/09/26 11:43:43;;;;;;;4.93;3.40;;;;;;;;;;10289265;28;20080;-67
2022/09/26 11:48:56;;;;;;;7.03;3.10;;;;;;;;;;10281118;28;20430;-67
2022/09/26 11:54:32;;;;;;;4.20;3.22;;;;;;;;;;10285144;28;20084;-69
2022/09/26 11:59:36;;;;;;;7.38;4.40;;;;;;;;;;10299584;28;20088;-68
2022/09/26 12:04:44;;;;;;;4.43;2.88;;;;;;;;;;10282191;28;20080;-68
2022/09/26 12:09:50;;;;;;;3.38;2.75;;;;;;;;;;10292101;28;20112;-68
2022/09/26 12:14:54;;;;;;;2.92;2.53;;;;;;;;;;10280743;28;20076;-67
2022/09/26 12:19:57;;;;;;;3.60;2.60;;;;;;;;;;10276046;28;20080;-69
2022/09/26 12:25:03;;;;;;;7.88;3.13;;;;;;;;;;10281078;28;20434;-68
2022/09/26 12:30:05;;;;;;;7.03;2.47;;;;;;;;;;10281413;28;20056;-68
2022/09/26 12:35:17;;;;;;;4.88;3.00;;;;;;;;;;10286324;28;20045;-68
2022/09/26 12:40:28;;;;;;;4.43;2.50;;;;;;;;;;10274670;28;20490;-67
2022/09/26 12:45:44;;;;;;;7.25;2.53;;;;;;;;;;10280609;28;20529;-67
2022/09/26 12:50:56;;;;;;;5.15;3.17;;;;;;;;;;10280652;28;20063;-67
2022/09/26 12:56:05;;;;;;;7.13;3.17;;;;;;;;;;10278913;28;20399;-68
2022/09/26 13:01:10;;;;;;;7.57;3.10;;;;;;;;;;10281528;28;20071;-67
2022/09/26 13:06:32;;;;;;;2.92;2.40;;;;;;;;;;10274583;28;20438;-67
2022/09/26 13:11:37;;;;;;;3.65;2.58;;;;;;;;;;10287357;28;20072;-68
2022/09/26 13:16:44;;;;;;;12.77;2.65;;;;;;;;;;10293894;28;20080;-66
2022/09/26 13:21:44;;;;;;;5.22;2.70;;;;;;;;;;10297997;28;20087;-66
2022/09/26 13:26:46;;;;;;;4.70;3.20;;;;;;;;;;10286345;28;20087;-67
2022/09/26 13:31:46;;;;;;;5.97;4.00;;;;;;;;;;10285936;28;20521;-67
2022/09/26 13:36:45;;;;;;;14.98;4.07;;;;;;;;;;10286480;28;20060;-67
2022/09/26 13:41:54;;;;;;;12.85;3.70;;;;;;;;;;10279390;28;20087;-68
2022/09/26 13:46:58;;;;;;;6.82;3.72;;;;;;;;;;10286863;28;20152;-67
2022/09/26 13:52:10;;;;;;;12.00;4.80;;;;;;;;;;10285196;28;20068;-67
2022/09/26 14:02:32;;;;;;;11.25;4.00;;;;;;;;;;10324308;27;20396;-67
2022/09/26 14:13:17;;;;;;;12.20;5.47;;;;;;;;;;10308166;28;20083;-67
2022/09/26 14:18:27;;;;;;;9.63;3.28;;;;;;;;;;10306561;28;20447;-68
2022/09/26 14:23:52;;;;;;;9.20;4.85;;;;;;;;;;10306667;28;20068;-68
2022/09/26 14:28:51;;;;;;;12.38;4.70;;;;;;;;;;10271101;28;20118;-69
2022/09/26 14:34:04;;;;;;;11.05;4.93;;;;;;;;;;10305754;28;20072;-67
2022/09/26 14:39:06;;;;;;;13.32;4.80;;;;;;;;;;10302098;28;20477;-68
2022/09/26 14:44:16;;;;;;;13.73;3.95;;;;;;;;;;10305384;28;20075;-68
2022/09/26 14:49:19;;;;;;;12.57;4.75;;;;;;;;;;10305984;28;20048;-68
2022/09/26 14:54:21;;;;;;;16.53;9.83;;;;;;;;;;10304511;28;20044;-67
2022/09/26 14:59:29;;;;;;;8.30;4.88;;;;;;;;;;10305812;28;20080;-68
2022/09/26 15:04:32;;;;;;;15.93;5.72;;;;;;;;;;10304947;28;20075;-68
2022/09/26 15:09:35;;;;;;;14.98;4.50;;;;;;;;;;10299929;28;20535;-68
2022/09/26 15:14:37;;;;;;;21.15;4.53;;;;;;;;;;10278001;28;20546;-68
2022/09/26 15:19:41;;;;;;;13.90;4.68;;;;;;;;;;10276518;28;20072;-68
2022/09/26 15:24:39;;;;;;;16.48;4.75;;;;;;;;;;10278247;28;20098;-68
2022/09/26 15:29:45;;;;;;;12.52;4.75;;;;;;;;;;10277963;28;20049;-69
2022/09/26 15:34:45;;;;;;;12.82;5.63;;;;;;;;;;10270764;28;20037;-67
2022/09/26 15:39:43;;;;;;;19.10;10.68;;;;;;;;;;10277195;28;20073;-66
2022/09/26 15:44:46;;;;;;;40.38;20.45;;;;;;;;;;10276397;28;20066;-67
2022/09/26 15:49:45;;;;;;;21.65;11.07;;;;;;;;;;10276969;28;20065;-67
2022/09/26 15:54:44;;;;;;;44.05;7.63;;;;;;;;;;10275914;28;20045;-68
2022/09/26 15:59:43;;;;;;;18.90;9.90;;;;;;;;;;10275718;28;20088;-67
2022/09/26 16:04:41;;;;;;;15.70;7.82;;;;;;;;;;10275625;28;20068;-68
2022/09/26 16:09:42;;;;;;;25.00;13.57;;;;;;;;;;10275874;28;20080;-68
2022/09/26 16:14:45;;;;;;;8.68;5.43;;;;;;;;;;10276145;28;20302;-68
2022/09/26 16:20:11;;;;;;;;;;;;;;;;;;;;;
2022/09/26 16:25:28;;;;;;;16.45;7.85;;;;;;;;;;10263373;28;20056;-68
2022/09/26 16:31:00;;;;;;;48.40;13.32;;;;;;;;;;10273803;28;20076;-70
2022/09/26 16:36:04;;;;;;;17.02;8.20;;;;;;;;;;10274466;28;20112;-68
2022/09/26 16:41:12;;;;;;;11.55;5.18;;;;;;;;;;10274065;28;20366;-69
2022/09/26 16:46:18;;;;;;;8.43;4.85;;;;;;;;;;10270530;28;20072;-68
2022/09/26 16:51:20;;;;;;;34.30;10.73;;;;;;;;;;10272504;28;20084;-67
2022/09/26 16:56:24;;;;;;;36.70;7.93;;;;;;;;;;10271702;28;20510;-68
2022/09/26 17:06:44;;;;;;;19.67;6.20;;;;;;;;;;10269331;28;20079;-69
2022/09/26 17:11:53;;;;;;;12.05;4.25;;;;;;;;;;10273039;28;20454;-71
2022/09/26 17:17:03;;;;;;;7.68;3.45;;;;;;;;;;10272091;28;20076;-70
2022/09/26 17:22:03;;;;;;;11.02;4.45;;;;;;;;;;10272760;28;20478;-68
2022/09/26 17:27:07;;;;;;;25.02;10.27;;;;;;;;;;10273414;28;20068;-69
2022/09/26 17:32:21;;;;;;;56.35;10.73;;;;;;;;;;10272397;28;20166;-70
2022/09/26 17:37:22;;;;;;;28.50;11.23;;;;;;;;;;10272693;28;20702;-68
2022/09/26 17:42:22;;;;;;;56.05;14.95;;;;;;;;;;10272027;28;20632;-67
2022/09/26 17:47:22;;;;;;;23.60;12.90;;;;;;;;;;10270246;28;20071;-67
2022/09/26 17:52:24;;;;;;;27.58;11.60;;;;;;;;;;10270683;28;20122;-66
2022/09/26 17:57:28;;;;;;;16.17;10.98;;;;;;;;;;10267608;28;20064;-68
2022/09/26 18:02:47;;;;;;;21.40;9.65;;;;;;;;;;10266138;28;20087;-68
2022/09/26 18:07:46;;;;;;;13.43;9.40;;;;;;;;;;10270770;28;20490;-66
2022/09/26 18:12:56;;;;;;;10.52;9.18;;;;;;;;;;10269457;28;20069;-67
2022/09/26 18:17:55;;;;;;;15.43;8.90;;;;;;;;;;10270235;28;20088;-67
2022/09/26 18:22:54;;;;;;;14.73;8.05;;;;;;;;;;10271143;28;20068;-67
2022/09/26 18:27:56;;;;;;;14.60;10.23;;;;;;;;;;10270806;28;20102;-68
2022/09/26 18:32:55;;;;;;;12.30;6.95;;;;;;;;;;10268293;28;20068;-67
2022/09/26 18:37:54;;;;;;;8.07;6.70;;;;;;;;;;10271796;28;20080;-65
2022/09/26 18:42:53;;;;;;;12.18;7.18;;;;;;;;;;10269379;28;20068;-66
2022/09/26 18:47:53;;;;;;;12.13;6.47;;;;;;;;;;10275568;28;20479;-67
2022/09/26 18:52:52;;;;;;;20.52;7.50;;;;;;;;;;10279130;28;20167;-67
2022/09/26 19:03:08;;;;;;;17.13;8.35;;;;;;;;;;10275055;28;20085;-65
2022/09/26 19:08:21;;;;;;;14.30;8.02;;;;;;;;;;10279483;28;20103;-67
2022/09/26 19:13:19;;;;;;;22.10;11.52;;;;;;;;;;10279688;28;20077;-66
2022/09/26 19:18:25;;;;;;;8.65;6.40;;;;;;;;;;10276068;28;20064;-65
2022/09/26 19:23:25;;;;;;;9.65;6.68;;;;;;;;;;10273759;28;20075;-66
2022/09/26 19:28:25;;;;;;;8.50;5.68;;;;;;;;;;10278000;28;20048;-67
2022/09/26 19:33:23;;;;;;;8.75;4.72;;;;;;;;;;10277130;28;20123;-67
2022/09/26 19:38:23;;;;;;;7.88;4.28;;;;;;;;;;10275736;28;20064;-67
2022/09/26 19:43:22;;;;;;;13.85;5.95;;;;;;;;;;10277412;28;20068;-66
2022/09/26 19:48:26;;;;;;;8.77;5.53;;;;;;;;;;10277229;28;20478;-68
2022/09/26 19:53:27;;;;;;;6.00;4.30;;;;;;;;;;10272132;28;20072;-67
2022/09/26 19:58:28;;;;;;;7.97;4.40;;;;;;;;;;10274960;28;20048;-66
2022/09/26 20:03:29;;;;;;;5.40;4.30;;;;;;;;;;10277547;28;20442;-67
2022/09/26 20:08:28;;;;;;;10.55;4.93;;;;;;;;;;10276267;28;20080;-67
2022/09/26 20:14:21;;;;;;;5.55;4.80;;;;;;;;;;10276880;28;20069;-67
2022/09/26 20:18:47;;;;;;;6.38;4.15;;;;;;;;;;10275354;28;20485;-67
2022/09/26 20:23:47;;;;;;;8.70;5.18;;;;;;;;;;10276628;28;20073;-67
2022/09/26 20:28:45;;;;;;;9.15;5.38;;;;;;;;;;10275567;28;20061;-67
2022/09/26 20:33:43;;;;;;;6.88;4.10;;;;;;;;;;10276665;28;20071;-67
2022/09/26 20:38:44;;;;;;;7.80;4.10;;;;;;;;;;10275896;28;20178;-67
2022/09/26 20:43:46;;;;;;;4.80;3.13;;;;;;;;;;10273891;28;20068;-66
2022/09/26 20:48:45;;;;;;;4.20;3.72;;;;;;;;;;10274713;28;20073;-66
2022/09/26 20:53:44;;;;;;;5.07;4.32;;;;;;;;;;10274225;28;20069;-66
2022/09/26 20:58:44;;;;;;;6.20;3.97;;;;;;;;;;10273726;28;20084;-67
2022/09/26 21:03:43;;;;;;;7.15;3.15;;;;;;;;;;10273848;28;20114;-67
2022/09/26 21:08:41;;;;;;;4.28;3.53;;;;;;;;;;10273540;28;20413;-67
2022/09/26 21:13:40;;;;;;;7.78;3.42;;;;;;;;;;10274176;28;20083;-66
2022/09/26 21:18:40;;;;;;;4.25;3.85;;;;;;;;;;10274516;28;20549;-66
2022/09/26 21:23:40;;;;;;;4.90;3.22;;;;;;;;;;10274992;28;20084;-66
2022/09/26 21:28:39;;;;;;;9.60;3.80;;;;;;;;;;10273751;28;20079;-66
2022/09/26 21:33:38;;;;;;;4.75;4.07;;;;;;;;;;10270399;28;20120;-65
2022/09/26 21:38:37;;;;;;;5.93;4.53;;;;;;;;;;10273359;28;20068;-66
2022/09/26 21:43:38;;;;;;;11.85;4.18;;;;;;;;;;10274372;28;20070;-66
2022/09/26 21:48:36;;;;;;;6.38;4.28;;;;;;;;;;10272877;28;20479;-65
2022/09/26 21:53:39;;;;;;;5.57;3.70;;;;;;;;;;10272010;28;20542;-66
2022/09/26 21:58:38;;;;;;;5.30;4.80;;;;;;;;;;10272532;28;20091;-67
2022/09/26 22:03:37;;;;;;;7.18;4.93;;;;;;;;;;10272771;28;20493;-66
2022/09/26 22:08:36;;;;;;;14.35;5.20;;;;;;;;;;10271569;28;20470;-66
2022/09/26 22:13:35;;;;;;;8.77;6.43;;;;;;;;;;10273768;28;20071;-65
2022/09/26 22:18:33;;;;;;;9.43;5.85;;;;;;;;;;10273817;28;20462;-66
2022/09/26 22:23:32;;;;;;;10.10;5.18;;;;;;;;;;10278987;28;20522;-66
2022/09/26 22:28:32;;;;;;;5.03;4.60;;;;;;;;;;10280877;28;20064;-66
2022/09/26 22:33:30;;;;;;;6.95;4.88;;;;;;;;;;10278987;28;20524;-67
2022/09/26 22:38:28;;;;;;;7.15;4.43;;;;;;;;;;10279118;28;20059;-65
2022/09/26 22:43:27;;;;;;;14.18;4.72;;;;;;;;;;10278931;28;20129;-67
2022/09/26 22:48:29;;;;;;;9.50;4.25;;;;;;;;;;10279300;28;20071;-66
2022/09/26 22:53:27;;;;;;;7.30;4.28;;;;;;;;;;10279335;28;20068;-68
2022/09/26 22:58:26;;;;;;;6.78;4.28;;;;;;;;;;10278108;28;20080;-66
2022/09/26 23:03:24;;;;;;;9.18;5.75;;;;;;;;;;10278385;28;20076;-66
2022/09/26 23:08:24;;;;;;;12.93;5.03;;;;;;;;;;10279271;28;20067;-66
2022/09/26 23:13:24;;;;;;;10.50;4.10;;;;;;;;;;10277669;28;20045;-67
2022/09/26 23:18:22;;;;;;;6.60;4.25;;;;;;;;;;10279136;28;20455;-66
2022/09/26 23:23:21;;;;;;;9.48;4.25;;;;;;;;;;10277917;28;20087;-66
2022/09/26 23:28:20;;;;;;;3.88;3.47;;;;;;;;;;10276380;28;20060;-66
2022/09/26 23:33:19;;;;;;;6.20;3.60;;;;;;;;;;10275905;28;20041;-66
2022/09/26 23:38:17;;;;;;;4.43;4.03;;;;;;;;;;10277572;28;20069;-66
2022/09/26 23:43:16;;;;;;;6.88;4.65;;;;;;;;;;10275368;28;20080;-66
2022/09/26 23:48:16;;;;;;;13.13;6.05;;;;;;;;;;10276862;28;20076;-66
2022/09/26 23:53:14;;;;;;;7.03;5.47;;;;;;;;;;10277078;28;20064;-65
2022/09/26 23:58:13;;;;;;;8.82;6.03;;;;;;;;;;10277085;28;20072;-66
